Ana Sayfa
METAR-TAF:

METAR-TAF

Havaalanları :

Pakse, Laos

Enlem: 15-08-02N, Boylam: 105-46-55E, yükseklik: 107 m

Güncel hava durumu gözlemi

Rapor saat 09:00 UTC de 46 dakika önce yapıldı.
Rüzgar güneydoğudan 6 kt
Sıcaklık 32°C
Nem 63%
Basınç 1006 hPa
Görüş mesafesi 10 km veya daha fazla
2000 ft yükseklikte az bulutlu
5000 ft yükseklikte az bulutlu
20000 ft yükseklikte parçalı çok bulutlu

METAR: VLPS 250900Z 14006KT 9999 FEW020 FEW050 BKN200 32/24 Q1006 NOSIG

Saat: 16:46 (09:46 UTC)

Tahmin

Rapor saat 05:00 UTC de 4 saat ve 46 dakika önce yapıldı.
Ayın 25'si saat 06 UTC'den ayın 26'si saat 06 UTC'ye kadar geçerli Tahmin
Rüzgar güneydoğudan 6 kt
Görüş mesafesi 10 km veya daha fazla
2000 ft yükseklikte parçalı bulutlu
5000 ft yükseklikte parçalı bulutlu

TAF: VLPS 250500Z 2506/2606 14006KT 9999 SCT020 SCT050

4.000'den fazla havaalanı için hava durumu gözlemleri ve tahminleri (METAR ve TAF raporları).

Kullanılabilir istasyonlar harita üzerinde sarı ve kırmızı noktalarla gösterilir.

İstasyonun adını görmek için fareyi noktanın üzerinde gezdirin.

Sonrasında hava gözlem ve tahminlerini görmek için tıklayın.

Haritayı değiştirmek için: yaklaştırmak için siyah artı işaretli yeşil düğmeye ve uzaklaştırmak için de eksi işaretli düğmeye hızla tıklayın; bitişik haritalar için yeşil okları kullanın.


METAR-TAF: